sensor_id;sensor_type;location;lat;lon;timestamp;temperature;humidity
7194;DHT22;3638;48.820;9.244;2023-03-31T00:02:11;11.70;99.90
7194;DHT22;3638;48.820;9.244;2023-03-31T00:04:39;11.80;99.90
7194;DHT22;3638;48.820;9.244;2023-03-31T00:07:11;11.80;99.90
7194;DHT22;3638;48.820;9.244;2023-03-31T00:09:42;11.70;99.90
7194;DHT22;3638;48.820;9.244;2023-03-31T00:12:11;11.70;99.90
7194;DHT22;3638;48.820;9.244;2023-03-31T00:14:39;11.70;99.90
7194;DHT22;3638;48.820;9.244;2023-03-31T00:17:06;11.70;99.90
7194;DHT22;3638;48.820;9.244;2023-03-31T00:19:33;11.60;99.90
7194;DHT22;3638;48.820;9.244;2023-03-31T00:22:00;11.60;99.90
7194;DHT22;3638;48.820;9.244;2023-03-31T00:24:29;11.60;99.90
7194;DHT22;3638;48.820;9.244;2023-03-31T00:26:59;11.60;99.90
7194;DHT22;3638;48.820;9.244;2023-03-31T00:29:26;11.50;99.90
7194;DHT22;3638;48.820;9.244;2023-03-31T00:31:54;11.60;99.90
7194;DHT22;3638;48.820;9.244;2023-03-31T00:34:21;11.60;99.90
7194;DHT22;3638;48.820;9.244;2023-03-31T00:36:48;11.60;99.90
7194;DHT22;3638;48.820;9.244;2023-03-31T00:39:17;11.60;99.90
7194;DHT22;3638;48.820;9.244;2023-03-31T00:41:45;11.50;99.90
7194;DHT22;3638;48.820;9.244;2023-03-31T00:44:14;11.50;99.90
7194;DHT22;3638;48.820;9.244;2023-03-31T00:46:51;11.50;99.90
7194;DHT22;3638;48.820;9.244;2023-03-31T00:49:24;11.50;99.90
7194;DHT22;3638;48.820;9.244;2023-03-31T00:51:57;11.50;99.90
7194;DHT22;3638;48.820;9.244;2023-03-31T00:54:27;11.50;99.90
7194;DHT22;3638;48.820;9.244;2023-03-31T00:56:57;11.60;99.90
7194;DHT22;3638;48.820;9.244;2023-03-31T00:59:31;11.50;99.90
7194;DHT22;3638;48.820;9.244;2023-03-31T01:02:00;11.50;99.90
7194;DHT22;3638;48.820;9.244;2023-03-31T01:04:32;11.50;99.90
7194;DHT22;3638;48.820;9.244;2023-03-31T01:07:06;11.50;99.90
7194;DHT22;3638;48.820;9.244;2023-03-31T01:09:37;11.50;99.90
7194;DHT22;3638;48.820;9.244;2023-03-31T01:12:07;11.60;99.90
7194;DHT22;3638;48.820;9.244;2023-03-31T01:14:37;11.60;99.90
7194;DHT22;3638;48.820;9.244;2023-03-31T01:17:05;11.50;99.90
7194;DHT22;3638;48.820;9.244;2023-03-31T01:19:46;11.50;99.90
7194;DHT22;3638;48.820;9.244;2023-03-31T01:22:44;11.60;99.90
7194;DHT22;3638;48.820;9.244;2023-03-31T01:26:05;11.50;99.90
7194;DHT22;3638;48.820;9.244;2023-03-31T01:28:49;11.50;99.90
7194;DHT22;3638;48.820;9.244;2023-03-31T01:31:55;11.60;99.90
7194;DHT22;3638;48.820;9.244;2023-03-31T01:35:08;11.60;99.90
7194;DHT22;3638;48.820;9.244;2023-03-31T01:41:11;11.70;99.90
7194;DHT22;3638;48.820;9.244;2023-03-31T01:43:50;11.70;99.90
7194;DHT22;3638;48.820;9.244;2023-03-31T01:46:27;11.70;99.90
7194;DHT22;3638;48.820;9.244;2023-03-31T01:49:11;11.60;99.90
7194;DHT22;3638;48.820;9.244;2023-03-31T01:51:47;11.70;99.90
7194;DHT22;3638;48.820;9.244;2023-03-31T01:54:21;11.60;99.90
7194;DHT22;3638;48.820;9.244;2023-03-31T01:56:52;11.70;99.90
7194;DHT22;3638;48.820;9.244;2023-03-31T01:59:24;11.60;99.90
7194;DHT22;3638;48.820;9.244;2023-03-31T02:01:57;11.70;99.90
7194;DHT22;3638;48.820;9.244;2023-03-31T02:04:31;11.70;99.90
7194;DHT22;3638;48.820;9.244;2023-03-31T02:07:03;11.80;99.90
7194;DHT22;3638;48.820;9.244;2023-03-31T02:09:37;11.70;99.90
7194;DHT22;3638;48.820;9.244;2023-03-31T02:12:07;11.70;99.90
7194;DHT22;3638;48.820;9.244;2023-03-31T02:14:39;11.80;99.90
7194;DHT22;3638;48.820;9.244;2023-03-31T02:17:12;11.90;99.90
7194;DHT22;3638;48.820;9.244;2023-03-31T02:19:48;12.00;99.90
7194;DHT22;3638;48.820;9.244;2023-03-31T02:22:17;12.10;99.90
7194;DHT22;3638;48.820;9.244;2023-03-31T02:24:48;12.20;99.90
7194;DHT22;3638;48.820;9.244;2023-03-31T02:27:19;12.20;99.90
7194;DHT22;3638;48.820;9.244;2023-03-31T02:29:48;12.10;99.90
7194;DHT22;3638;48.820;9.244;2023-03-31T02:32:22;12.10;99.90
7194;DHT22;3638;48.820;9.244;2023-03-31T02:34:53;11.90;99.90
7194;DHT22;3638;48.820;9.244;2023-03-31T02:37:20;11.80;99.90
7194;DHT22;3638;48.820;9.244;2023-03-31T02:39:49;11.80;99.90
7194;DHT22;3638;48.820;9.244;2023-03-31T02:42:18;11.70;99.90
7194;DHT22;3638;48.820;9.244;2023-03-31T02:44:45;11.70;99.90
7194;DHT22;3638;48.820;9.244;2023-03-31T02:47:13;11.80;99.90
7194;DHT22;3638;48.820;9.244;2023-03-31T02:49:44;11.70;99.90
7194;DHT22;3638;48.820;9.244;2023-03-31T02:52:29;11.70;99.90
7194;DHT22;3638;48.820;9.244;2023-03-31T02:55:17;11.70;99.90
7194;DHT22;3638;48.820;9.244;2023-03-31T02:58:10;11.70;99.90
7194;DHT22;3638;48.820;9.244;2023-03-31T03:01:07;11.60;99.90
7194;DHT22;3638;48.820;9.244;2023-03-31T03:03:44;11.60;99.90
7194;DHT22;3638;48.820;9.244;2023-03-31T03:06:31;11.70;99.90
7194;DHT22;3638;48.820;9.244;2023-03-31T03:09:16;11.60;99.90
7194;DHT22;3638;48.820;9.244;2023-03-31T03:12:03;11.60;99.90
7194;DHT22;3638;48.820;9.244;2023-03-31T03:14:40;11.60;99.90
7194;DHT22;3638;48.820;9.244;2023-03-31T03:17:15;11.60;99.90
7194;DHT22;3638;48.820;9.244;2023-03-31T03:19:50;11.50;99.90
7194;DHT22;3638;48.820;9.244;2023-03-31T03:22:18;11.60;99.90
7194;DHT22;3638;48.820;9.244;2023-03-31T03:24:46;11.60;99.90
7194;DHT22;3638;48.820;9.244;2023-03-31T03:27:14;11.60;99.90
7194;DHT22;3638;48.820;9.244;2023-03-31T03:29:40;11.50;99.90
7194;DHT22;3638;48.820;9.244;2023-03-31T03:32:08;11.50;99.90
7194;DHT22;3638;48.820;9.244;2023-03-31T03:34:35;11.50;99.90
7194;DHT22;3638;48.820;9.244;2023-03-31T03:37:02;11.40;99.90
7194;DHT22;3638;48.820;9.244;2023-03-31T03:39:29;11.40;99.90
7194;DHT22;3638;48.820;9.244;2023-03-31T03:41:57;11.30;99.90
7194;DHT22;3638;48.820;9.244;2023-03-31T03:44:24;11.30;99.90
7194;DHT22;3638;48.820;9.244;2023-03-31T03:46:51;11.20;99.90
7194;DHT22;3638;48.820;9.244;2023-03-31T03:49:18;11.30;99.90
7194;DHT22;3638;48.820;9.244;2023-03-31T03:51:45;11.30;99.90
7194;DHT22;3638;48.820;9.244;2023-03-31T03:54:12;11.20;99.90
7194;DHT22;3638;48.820;9.244;2023-03-31T03:56:39;11.20;99.90
7194;DHT22;3638;48.820;9.244;2023-03-31T03:59:07;11.20;99.90
7194;DHT22;3638;48.820;9.244;2023-03-31T04:01:34;11.20;99.90
7194;DHT22;3638;48.820;9.244;2023-03-31T04:04:01;11.20;99.90
7194;DHT22;3638;48.820;9.244;2023-03-31T04:06:28;11.20;99.90
7194;DHT22;3638;48.820;9.244;2023-03-31T04:08:55;11.10;99.90
7194;DHT22;3638;48.820;9.244;2023-03-31T04:11:22;11.10;99.90
7194;DHT22;3638;48.820;9.244;2023-03-31T04:13:49;11.00;99.90
7194;DHT22;3638;48.820;9.244;2023-03-31T04:16:17;10.90;99.90
7194;DHT22;3638;48.820;9.244;2023-03-31T04:18:44;10.90;99.90
7194;DHT22;3638;48.820;9.244;2023-03-31T04:21:12;10.90;99.90
7194;DHT22;3638;48.820;9.244;2023-03-31T04:23:41;10.80;99.90
7194;DHT22;3638;48.820;9.244;2023-03-31T04:26:11;10.70;99.90
7194;DHT22;3638;48.820;9.244;2023-03-31T04:28:38;10.70;99.90
7194;DHT22;3638;48.820;9.244;2023-03-31T04:31:09;10.70;99.90
7194;DHT22;3638;48.820;9.244;2023-03-31T04:33:41;10.70;99.90
7194;DHT22;3638;48.820;9.244;2023-03-31T04:36:10;10.80;99.90
7194;DHT22;3638;48.820;9.244;2023-03-31T04:38:42;10.80;99.90
7194;DHT22;3638;48.820;9.244;2023-03-31T04:41:11;10.80;99.90
7194;DHT22;3638;48.820;9.244;2023-03-31T04:43:38;10.80;99.90
7194;DHT22;3638;48.820;9.244;2023-03-31T04:46:05;10.80;99.90
7194;DHT22;3638;48.820;9.244;2023-03-31T04:48:32;10.80;99.90
7194;DHT22;3638;48.820;9.244;2023-03-31T04:51:01;10.80;99.90
7194;DHT22;3638;48.820;9.244;2023-03-31T04:53:28;10.70;99.90
7194;DHT22;3638;48.820;9.244;2023-03-31T04:55:55;10.80;99.90
7194;DHT22;3638;48.820;9.244;2023-03-31T04:58:22;10.70;99.90
7194;DHT22;3638;48.820;9.244;2023-03-31T05:00:49;10.80;99.90
7194;DHT22;3638;48.820;9.244;2023-03-31T05:03:16;10.70;99.90
7194;DHT22;3638;48.820;9.244;2023-03-31T05:05:43;10.80;99.90
7194;DHT22;3638;48.820;9.244;2023-03-31T05:08:12;10.80;99.90
7194;DHT22;3638;48.820;9.244;2023-03-31T05:10:38;10.70;99.90
7194;DHT22;3638;48.820;9.244;2023-03-31T05:13:07;10.80;99.90
7194;DHT22;3638;48.820;9.244;2023-03-31T05:15:36;10.70;99.90
7194;DHT22;3638;48.820;9.244;2023-03-31T05:18:03;10.80;99.90
7194;DHT22;3638;48.820;9.244;2023-03-31T05:20:30;10.80;99.90
7194;DHT22;3638;48.820;9.244;2023-03-31T05:22:58;10.80;99.90
7194;DHT22;3638;48.820;9.244;2023-03-31T05:25:26;10.80;99.90
7194;DHT22;3638;48.820;9.244;2023-03-31T05:27:57;10.80;99.90
7194;DHT22;3638;48.820;9.244;2023-03-31T05:30:25;10.80;99.90
7194;DHT22;3638;48.820;9.244;2023-03-31T05:32:52;10.80;99.90
7194;DHT22;3638;48.820;9.244;2023-03-31T05:35:20;10.70;99.90
7194;DHT22;3638;48.820;9.244;2023-03-31T05:37:47;10.70;99.90
7194;DHT22;3638;48.820;9.244;2023-03-31T05:40:15;10.60;99.90
7194;DHT22;3638;48.820;9.244;2023-03-31T05:42:43;10.60;99.90
7194;DHT22;3638;48.820;9.244;2023-03-31T05:45:10;10.60;99.90
7194;DHT22;3638;48.820;9.244;2023-03-31T05:47:38;10.60;99.90
7194;DHT22;3638;48.820;9.244;2023-03-31T05:50:05;10.00;99.90
7194;DHT22;3638;48.820;9.244;2023-03-31T05:52:33;10.40;99.90
7194;DHT22;3638;48.820;9.244;2023-03-31T05:55:00;10.40;99.90
7194;DHT22;3638;48.820;9.244;2023-03-31T05:57:27;10.40;99.90
7194;DHT22;3638;48.820;9.244;2023-03-31T05:59:56;10.30;99.90
7194;DHT22;3638;48.820;9.244;2023-03-31T06:02:23;10.30;99.90
7194;DHT22;3638;48.820;9.244;2023-03-31T06:04:50;10.30;99.90
7194;DHT22;3638;48.820;9.244;2023-03-31T06:07:17;10.30;99.90
7194;DHT22;3638;48.820;9.244;2023-03-31T06:09:44;10.40;99.90
7194;DHT22;3638;48.820;9.244;2023-03-31T06:12:11;10.30;99.90
7194;DHT22;3638;48.820;9.244;2023-03-31T06:14:38;10.30;99.90
7194;DHT22;3638;48.820;9.244;2023-03-31T06:17:06;10.40;99.90
7194;DHT22;3638;48.820;9.244;2023-03-31T06:19:33;10.40;99.90
7194;DHT22;3638;48.820;9.244;2023-03-31T06:22:00;10.40;99.90
7194;DHT22;3638;48.820;9.244;2023-03-31T06:24:27;10.40;99.90
7194;DHT22;3638;48.820;9.244;2023-03-31T06:26:54;10.30;99.90
7194;DHT22;3638;48.820;9.244;2023-03-31T06:29:21;10.40;99.90
7194;DHT22;3638;48.820;9.244;2023-03-31T06:31:48;10.40;99.90
7194;DHT22;3638;48.820;9.244;2023-03-31T06:34:16;10.40;99.90
7194;DHT22;3638;48.820;9.244;2023-03-31T06:36:43;10.40;99.90
7194;DHT22;3638;48.820;9.244;2023-03-31T06:39:10;10.40;99.90
7194;DHT22;3638;48.820;9.244;2023-03-31T06:41:36;9.30;99.90
7194;DHT22;3638;48.820;9.244;2023-03-31T06:44:04;10.30;99.90
7194;DHT22;3638;48.820;9.244;2023-03-31T06:46:31;10.30;99.90
7194;DHT22;3638;48.820;9.244;2023-03-31T06:48:58;10.20;99.90
7194;DHT22;3638;48.820;9.244;2023-03-31T06:51:26;10.20;99.90
7194;DHT22;3638;48.820;9.244;2023-03-31T06:53:53;10.10;99.90
7194;DHT22;3638;48.820;9.244;2023-03-31T06:56:20;10.00;99.90
7194;DHT22;3638;48.820;9.244;2023-03-31T06:58:46;10.00;99.90
7194;DHT22;3638;48.820;9.244;2023-03-31T07:01:13;10.00;99.90
7194;DHT22;3638;48.820;9.244;2023-03-31T07:03:40;9.90;99.90
7194;DHT22;3638;48.820;9.244;2023-03-31T07:06:07;9.90;99.90
7194;DHT22;3638;48.820;9.244;2023-03-31T07:08:35;9.90;99.90
7194;DHT22;3638;48.820;9.244;2023-03-31T07:11:02;9.90;99.90
7194;DHT22;3638;48.820;9.244;2023-03-31T07:13:29;9.90;99.90
7194;DHT22;3638;48.820;9.244;2023-03-31T07:15:56;9.90;99.90
7194;DHT22;3638;48.820;9.244;2023-03-31T07:18:24;9.90;99.90
7194;DHT22;3638;48.820;9.244;2023-03-31T07:20:56;10.00;99.90
7194;DHT22;3638;48.820;9.244;2023-03-31T07:23:23;10.00;99.90
7194;DHT22;3638;48.820;9.244;2023-03-31T07:25:52;10.10;99.90
7194;DHT22;3638;48.820;9.244;2023-03-31T07:28:19;10.20;99.90
7194;DHT22;3638;48.820;9.244;2023-03-31T07:30:45;10.20;99.90
7194;DHT22;3638;48.820;9.244;2023-03-31T07:33:12;10.30;99.90
7194;DHT22;3638;48.820;9.244;2023-03-31T07:35:39;10.30;99.90
7194;DHT22;3638;48.820;9.244;2023-03-31T07:38:07;10.40;99.90
7194;DHT22;3638;48.820;9.244;2023-03-31T07:40:35;10.30;99.90
7194;DHT22;3638;48.820;9.244;2023-03-31T07:43:03;10.40;99.90
7194;DHT22;3638;48.820;9.244;2023-03-31T07:45:31;10.60;99.90
7194;DHT22;3638;48.820;9.244;2023-03-31T07:47:59;11.00;99.90
7194;DHT22;3638;48.820;9.244;2023-03-31T07:50:26;11.30;99.90
7194;DHT22;3638;48.820;9.244;2023-03-31T07:52:52;11.40;99.90
7194;DHT22;3638;48.820;9.244;2023-03-31T07:55:20;11.70;99.90
7194;DHT22;3638;48.820;9.244;2023-03-31T07:57:48;11.90;99.90
7194;DHT22;3638;48.820;9.244;2023-03-31T08:00:18;11.90;99.90
7194;DHT22;3638;48.820;9.244;2023-03-31T08:02:45;11.90;99.90
7194;DHT22;3638;48.820;9.244;2023-03-31T08:05:14;11.80;99.90
7194;DHT22;3638;48.820;9.244;2023-03-31T08:07:44;11.60;99.90
7194;DHT22;3638;48.820;9.244;2023-03-31T08:10:14;11.50;99.90
7194;DHT22;3638;48.820;9.244;2023-03-31T08:12:42;12.10;99.90
7194;DHT22;3638;48.820;9.244;2023-03-31T08:15:09;12.20;99.90
7194;DHT22;3638;48.820;9.244;2023-03-31T08:17:38;12.60;99.90
7194;DHT22;3638;48.820;9.244;2023-03-31T08:20:07;13.30;99.90
7194;DHT22;3638;48.820;9.244;2023-03-31T08:22:35;13.30;99.90
7194;DHT22;3638;48.820;9.244;2023-03-31T08:25:02;13.60;99.90
7194;DHT22;3638;48.820;9.244;2023-03-31T08:27:32;13.80;99.90
7194;DHT22;3638;48.820;9.244;2023-03-31T08:29:59;13.90;99.90
7194;DHT22;3638;48.820;9.244;2023-03-31T08:32:29;14.00;99.90
7194;DHT22;3638;48.820;9.244;2023-03-31T08:34:58;14.40;99.90
7194;DHT22;3638;48.820;9.244;2023-03-31T08:37:25;14.40;99.90
7194;DHT22;3638;48.820;9.244;2023-03-31T08:39:52;14.50;99.90
7194;DHT22;3638;48.820;9.244;2023-03-31T08:42:24;14.50;99.90
7194;DHT22;3638;48.820;9.244;2023-03-31T08:45:01;14.80;99.90
7194;DHT22;3638;48.820;9.244;2023-03-31T08:47:33;14.90;99.90
7194;DHT22;3638;48.820;9.244;2023-03-31T08:50:06;14.90;99.90
7194;DHT22;3638;48.820;9.244;2023-03-31T08:52:40;15.10;99.90
7194;DHT22;3638;48.820;9.244;2023-03-31T08:55:12;15.30;99.90
7194;DHT22;3638;48.820;9.244;2023-03-31T08:57:53;15.30;99.90
7194;DHT22;3638;48.820;9.244;2023-03-31T09:00:22;15.50;99.90
7194;DHT22;3638;48.820;9.244;2023-03-31T09:02:53;15.60;99.90
7194;DHT22;3638;48.820;9.244;2023-03-31T09:05:42;15.60;99.90
7194;DHT22;3638;48.820;9.244;2023-03-31T09:08:16;15.80;99.90
7194;DHT22;3638;48.820;9.244;2023-03-31T09:10:53;15.90;99.90
7194;DHT22;3638;48.820;9.244;2023-03-31T09:13:38;16.20;99.90
7194;DHT22;3638;48.820;9.244;2023-03-31T09:16:22;16.10;99.90
7194;DHT22;3638;48.820;9.244;2023-03-31T09:18:52;16.00;99.90
7194;DHT22;3638;48.820;9.244;2023-03-31T09:21:29;16.10;99.90
7194;DHT22;3638;48.820;9.244;2023-03-31T09:24:04;16.00;99.90
7194;DHT22;3638;48.820;9.244;2023-03-31T09:26:36;16.10;99.90
7194;DHT22;3638;48.820;9.244;2023-03-31T09:29:11;16.50;99.90
7194;DHT22;3638;48.820;9.244;2023-03-31T09:31:43;16.50;99.90
7194;DHT22;3638;48.820;9.244;2023-03-31T09:34:13;16.00;99.90
7194;DHT22;3638;48.820;9.244;2023-03-31T09:36:43;15.90;99.90
7194;DHT22;3638;48.820;9.244;2023-03-31T09:39:12;16.00;99.90
7194;DHT22;3638;48.820;9.244;2023-03-31T09:41:42;15.90;99.90
7194;DHT22;3638;48.820;9.244;2023-03-31T09:44:23;15.70;99.90
7194;DHT22;3638;48.820;9.244;2023-03-31T09:46:53;15.70;99.90
7194;DHT22;3638;48.820;9.244;2023-03-31T09:49:22;15.40;99.90
7194;DHT22;3638;48.820;9.244;2023-03-31T09:52:00;15.40;99.90
7194;DHT22;3638;48.820;9.244;2023-03-31T09:54:34;15.40;99.90
7194;DHT22;3638;48.820;9.244;2023-03-31T09:57:12;15.60;99.90
7194;DHT22;3638;48.820;9.244;2023-03-31T10:02:26;16.40;99.90
7194;DHT22;3638;48.820;9.244;2023-03-31T10:04:59;16.50;99.90
7194;DHT22;3638;48.820;9.244;2023-03-31T10:07:28;16.70;99.90
7194;DHT22;3638;48.820;9.244;2023-03-31T10:09:55;16.70;99.90
7194;DHT22;3638;48.820;9.244;2023-03-31T10:12:25;17.10;99.90
7194;DHT22;3638;48.820;9.244;2023-03-31T10:14:53;17.20;99.90
7194;DHT22;3638;48.820;9.244;2023-03-31T10:17:28;17.30;99.90
7194;DHT22;3638;48.820;9.244;2023-03-31T10:19:57;17.10;99.90
7194;DHT22;3638;48.820;9.244;2023-03-31T10:22:28;17.10;99.90
7194;DHT22;3638;48.820;9.244;2023-03-31T10:25:14;17.10;99.90
7194;DHT22;3638;48.820;9.244;2023-03-31T10:27:45;17.00;99.90
7194;DHT22;3638;48.820;9.244;2023-03-31T10:30:19;17.20;99.90
7194;DHT22;3638;48.820;9.244;2023-03-31T10:35:23;17.30;99.50
7194;DHT22;3638;48.820;9.244;2023-03-31T10:37:56;17.30;99.90
7194;DHT22;3638;48.820;9.244;2023-03-31T10:40:26;17.60;98.80
7194;DHT22;3638;48.820;9.244;2023-03-31T10:43:00;17.50;98.90
7194;DHT22;3638;48.820;9.244;2023-03-31T10:45:30;17.60;99.00
7194;DHT22;3638;48.820;9.244;2023-03-31T10:48:01;17.70;97.60
7194;DHT22;3638;48.820;9.244;2023-03-31T10:50:30;17.70;98.20
7194;DHT22;3638;48.820;9.244;2023-03-31T10:53:04;17.90;97.60
7194;DHT22;3638;48.820;9.244;2023-03-31T10:55:35;17.50;95.90
7194;DHT22;3638;48.820;9.244;2023-03-31T10:58:14;13.30;95.20
7194;DHT22;3638;48.820;9.244;2023-03-31T11:00:59;17.70;96.60
7194;DHT22;3638;48.820;9.244;2023-03-31T11:03:42;17.60;95.30
7194;DHT22;3638;48.820;9.244;2023-03-31T11:06:21;17.30;95.20
7194;DHT22;3638;48.820;9.244;2023-03-31T11:08:59;17.40;95.10
7194;DHT22;3638;48.820;9.244;2023-03-31T11:11:47;17.30;94.80
7194;DHT22;3638;48.820;9.244;2023-03-31T11:14:28;17.10;95.20
7194;DHT22;3638;48.820;9.244;2023-03-31T11:17:07;16.80;94.80
7194;DHT22;3638;48.820;9.244;2023-03-31T11:19:47;16.70;95.60
7194;DHT22;3638;48.820;9.244;2023-03-31T11:22:23;16.20;99.90
7194;DHT22;3638;48.820;9.244;2023-03-31T11:25:21;15.20;99.90
7194;DHT22;3638;48.820;9.244;2023-03-31T11:28:18;13.20;99.90
7194;DHT22;3638;48.820;9.244;2023-03-31T11:30:56;11.50;99.90
7194;DHT22;3638;48.820;9.244;2023-03-31T11:33:41;10.80;99.90
7194;DHT22;3638;48.820;9.244;2023-03-31T11:36:31;10.60;99.90
7194;DHT22;3638;48.820;9.244;2023-03-31T11:39:17;10.50;99.90
7194;DHT22;3638;48.820;9.244;2023-03-31T11:41:56;10.60;99.90
7194;DHT22;3638;48.820;9.244;2023-03-31T11:44:27;10.70;99.90
7194;DHT22;3638;48.820;9.244;2023-03-31T11:46:57;10.70;99.90
7194;DHT22;3638;48.820;9.244;2023-03-31T11:49:29;10.90;99.90
7194;DHT22;3638;48.820;9.244;2023-03-31T11:51:59;11.00;99.90
7194;DHT22;3638;48.820;9.244;2023-03-31T11:54:31;11.10;99.90
7194;DHT22;3638;48.820;9.244;2023-03-31T11:57:06;11.40;99.90
7194;DHT22;3638;48.820;9.244;2023-03-31T11:59:38;11.40;99.90
7194;DHT22;3638;48.820;9.244;2023-03-31T12:02:14;11.50;99.90
7194;DHT22;3638;48.820;9.244;2023-03-31T12:04:45;11.50;99.90
7194;DHT22;3638;48.820;9.244;2023-03-31T12:07:22;11.60;99.90
7194;DHT22;3638;48.820;9.244;2023-03-31T12:09:56;11.80;99.90
7194;DHT22;3638;48.820;9.244;2023-03-31T12:12:44;11.80;99.90
7194;DHT22;3638;48.820;9.244;2023-03-31T12:15:18;12.20;99.90
7194;DHT22;3638;48.820;9.244;2023-03-31T12:17:51;12.70;99.90
7194;DHT22;3638;48.820;9.244;2023-03-31T12:20:28;12.70;99.90
7194;DHT22;3638;48.820;9.244;2023-03-31T12:22:58;13.30;99.90
7194;DHT22;3638;48.820;9.244;2023-03-31T12:25:33;13.30;99.90
7194;DHT22;3638;48.820;9.244;2023-03-31T12:28:08;13.30;99.90
7194;DHT22;3638;48.820;9.244;2023-03-31T12:30:38;13.40;99.90
7194;DHT22;3638;48.820;9.244;2023-03-31T12:33:13;13.50;99.90
7194;DHT22;3638;48.820;9.244;2023-03-31T12:35:51;13.50;99.90
7194;DHT22;3638;48.820;9.244;2023-03-31T12:38:39;13.80;99.90
7194;DHT22;3638;48.820;9.244;2023-03-31T12:41:14;14.00;99.90
7194;DHT22;3638;48.820;9.244;2023-03-31T12:44:07;14.30;99.90
7194;DHT22;3638;48.820;9.244;2023-03-31T12:46:58;14.30;99.90
7194;DHT22;3638;48.820;9.244;2023-03-31T12:50:03;14.10;99.90
7194;DHT22;3638;48.820;9.244;2023-03-31T12:52:46;14.10;99.90
7194;DHT22;3638;48.820;9.244;2023-03-31T12:55:30;14.20;99.90
7194;DHT22;3638;48.820;9.244;2023-03-31T12:58:37;14.40;99.90
7194;DHT22;3638;48.820;9.244;2023-03-31T13:01:09;14.70;99.90
7194;DHT22;3638;48.820;9.244;2023-03-31T13:04:07;15.10;99.90
7194;DHT22;3638;48.820;9.244;2023-03-31T13:06:56;15.10;99.90
7194;DHT22;3638;48.820;9.244;2023-03-31T13:09:44;15.30;99.90
7194;DHT22;3638;48.820;9.244;2023-03-31T13:12:15;15.30;99.90
7194;DHT22;3638;48.820;9.244;2023-03-31T13:14:44;15.30;99.90
7194;DHT22;3638;48.820;9.244;2023-03-31T13:17:23;15.20;99.90
7194;DHT22;3638;48.820;9.244;2023-03-31T13:19:53;14.80;99.90
7194;DHT22;3638;48.820;9.244;2023-03-31T13:22:32;14.50;99.90
7194;DHT22;3638;48.820;9.244;2023-03-31T13:25:25;14.10;99.90
7194;DHT22;3638;48.820;9.244;2023-03-31T13:28:08;13.90;99.90
7194;DHT22;3638;48.820;9.244;2023-03-31T13:30:49;13.60;99.90
7194;DHT22;3638;48.820;9.244;2023-03-31T13:33:25;13.40;99.90
7194;DHT22;3638;48.820;9.244;2023-03-31T13:39:32;13.30;99.90
7194;DHT22;3638;48.820;9.244;2023-03-31T13:42:19;13.10;99.90
7194;DHT22;3638;48.820;9.244;2023-03-31T13:45:07;13.10;99.90
7194;DHT22;3638;48.820;9.244;2023-03-31T13:48:13;12.80;99.90
7194;DHT22;3638;48.820;9.244;2023-03-31T13:51:08;12.70;99.90
7194;DHT22;3638;48.820;9.244;2023-03-31T13:54:08;12.50;99.90
7194;DHT22;3638;48.820;9.244;2023-03-31T14:00:29;12.00;99.90
7194;DHT22;3638;48.820;9.244;2023-03-31T14:03:12;11.80;99.90
7194;DHT22;3638;48.820;9.244;2023-03-31T14:05:47;11.50;99.90
7194;DHT22;3638;48.820;9.244;2023-03-31T14:08:23;11.40;99.90
7194;DHT22;3638;48.820;9.244;2023-03-31T14:11:14;11.50;99.90
7194;DHT22;3638;48.820;9.244;2023-03-31T14:13:59;11.50;99.90
7194;DHT22;3638;48.820;9.244;2023-03-31T14:16:27;11.50;99.90
7194;DHT22;3638;48.820;9.244;2023-03-31T14:19:05;11.80;99.90
7194;DHT22;3638;48.820;9.244;2023-03-31T14:21:50;12.30;99.90
7194;DHT22;3638;48.820;9.244;2023-03-31T14:24:28;12.30;99.90
7194;DHT22;3638;48.820;9.244;2023-03-31T14:27:02;13.10;99.90
7194;DHT22;3638;48.820;9.244;2023-03-31T14:29:38;13.30;99.90
7194;DHT22;3638;48.820;9.244;2023-03-31T14:32:17;13.30;99.90
7194;DHT22;3638;48.820;9.244;2023-03-31T14:35:07;13.60;99.90
7194;DHT22;3638;48.820;9.244;2023-03-31T14:37:49;13.50;99.90
7194;DHT22;3638;48.820;9.244;2023-03-31T14:40:16;13.70;99.90
7194;DHT22;3638;48.820;9.244;2023-03-31T14:42:44;13.40;99.90
7194;DHT22;3638;48.820;9.244;2023-03-31T14:45:17;13.50;99.90
7194;DHT22;3638;48.820;9.244;2023-03-31T14:47:53;13.50;99.90
7194;DHT22;3638;48.820;9.244;2023-03-31T14:50:27;13.80;99.90
7194;DHT22;3638;48.820;9.244;2023-03-31T14:52:57;13.90;99.90
7194;DHT22;3638;48.820;9.244;2023-03-31T14:55:26;14.00;99.90
7194;DHT22;3638;48.820;9.244;2023-03-31T14:57:57;14.00;99.90
7194;DHT22;3638;48.820;9.244;2023-03-31T15:00:27;14.00;99.90
7194;DHT22;3638;48.820;9.244;2023-03-31T15:02:57;13.70;99.90
7194;DHT22;3638;48.820;9.244;2023-03-31T15:05:28;13.60;99.90
7194;DHT22;3638;48.820;9.244;2023-03-31T15:08:00;13.60;99.90
7194;DHT22;3638;48.820;9.244;2023-03-31T15:10:34;13.60;99.90
7194;DHT22;3638;48.820;9.244;2023-03-31T15:13:07;13.50;99.90
7194;DHT22;3638;48.820;9.244;2023-03-31T15:18:03;13.20;99.90
7194;DHT22;3638;48.820;9.244;2023-03-31T15:20:34;13.30;99.90
7194;DHT22;3638;48.820;9.244;2023-03-31T15:23:18;13.50;99.90
7194;DHT22;3638;48.820;9.244;2023-03-31T15:25:51;13.50;99.90
7194;DHT22;3638;48.820;9.244;2023-03-31T15:28:20;13.60;99.90
7194;DHT22;3638;48.820;9.244;2023-03-31T15:30:48;13.60;99.90
7194;DHT22;3638;48.820;9.244;2023-03-31T15:33:19;13.60;99.90
7194;DHT22;3638;48.820;9.244;2023-03-31T15:35:49;13.70;99.90
7194;DHT22;3638;48.820;9.244;2023-03-31T15:38:17;13.70;99.90
7194;DHT22;3638;48.820;9.244;2023-03-31T15:40:48;13.70;99.90
7194;DHT22;3638;48.820;9.244;2023-03-31T15:43:27;13.70;99.90
7194;DHT22;3638;48.820;9.244;2023-03-31T15:45:57;13.80;99.90
7194;DHT22;3638;48.820;9.244;2023-03-31T15:48:28;16.10;99.90
7194;DHT22;3638;48.820;9.244;2023-03-31T15:51:01;13.70;99.90
7194;DHT22;3638;48.820;9.244;2023-03-31T15:53:36;13.50;99.90
7194;DHT22;3638;48.820;9.244;2023-03-31T15:56:04;13.40;99.90
7194;DHT22;3638;48.820;9.244;2023-03-31T15:59:02;13.50;99.90
7194;DHT22;3638;48.820;9.244;2023-03-31T16:01:32;13.40;99.90
7194;DHT22;3638;48.820;9.244;2023-03-31T16:04:07;13.30;99.90
7194;DHT22;3638;48.820;9.244;2023-03-31T16:06:41;13.30;99.90
7194;DHT22;3638;48.820;9.244;2023-03-31T16:09:13;13.20;99.90
7194;DHT22;3638;48.820;9.244;2023-03-31T16:11:44;13.10;99.90
7194;DHT22;3638;48.820;9.244;2023-03-31T16:14:15;13.10;99.90
7194;DHT22;3638;48.820;9.244;2023-03-31T16:16:48;13.10;99.90
7194;DHT22;3638;48.820;9.244;2023-03-31T16:19:17;13.00;99.90
7194;DHT22;3638;48.820;9.244;2023-03-31T16:21:47;13.00;99.90
7194;DHT22;3638;48.820;9.244;2023-03-31T16:24:19;13.00;99.90
7194;DHT22;3638;48.820;9.244;2023-03-31T16:26:47;12.80;99.90
7194;DHT22;3638;48.820;9.244;2023-03-31T16:29:19;12.80;99.90
7194;DHT22;3638;48.820;9.244;2023-03-31T16:31:46;12.80;99.90
7194;DHT22;3638;48.820;9.244;2023-03-31T16:34:14;12.80;99.90
7194;DHT22;3638;48.820;9.244;2023-03-31T16:39:08;12.60;99.90
7194;DHT22;3638;48.820;9.244;2023-03-31T16:41:37;12.40;99.90
7194;DHT22;3638;48.820;9.244;2023-03-31T16:46:31;12.30;99.90
7194;DHT22;3638;48.820;9.244;2023-03-31T16:48:58;12.20;99.90
7194;DHT22;3638;48.820;9.244;2023-03-31T16:51:25;12.20;99.90
7194;DHT22;3638;48.820;9.244;2023-03-31T16:53:52;12.10;99.90
7194;DHT22;3638;48.820;9.244;2023-03-31T16:56:19;12.10;99.90
7194;DHT22;3638;48.820;9.244;2023-03-31T16:58:47;12.10;99.90
7194;DHT22;3638;48.820;9.244;2023-03-31T17:01:15;12.10;99.90
7194;DHT22;3638;48.820;9.244;2023-03-31T17:03:42;11.90;99.90